createdAt,value
2022-10-18T00:02:13.602Z,12.30
2022-10-18T00:04:40.005Z,12.30
2022-10-18T00:07:06.400Z,12.30
2022-10-18T00:09:32.782Z,12.30
2022-10-18T00:11:59.183Z,12.30
2022-10-18T00:14:25.566Z,12.30
2022-10-18T00:16:51.989Z,12.30
2022-10-18T00:19:18.368Z,12.30
2022-10-18T00:24:16.069Z,12.20
2022-10-18T00:26:42.473Z,12.10
2022-10-18T00:29:08.854Z,12.00
2022-10-18T00:31:35.250Z,11.90
2022-10-18T00:34:01.641Z,11.90
2022-10-18T00:36:28.060Z,11.90
2022-10-18T00:38:54.453Z,11.90
2022-10-18T00:41:20.941Z,11.80
2022-10-18T00:43:47.310Z,11.80
2022-10-18T00:46:13.717Z,11.80
2022-10-18T00:48:40.098Z,11.80
2022-10-18T00:51:06.726Z,11.70
2022-10-18T00:53:33.273Z,11.70
2022-10-18T00:55:59.824Z,11.70
2022-10-18T00:58:26.310Z,11.70
2022-10-18T01:00:52.991Z,11.60
2022-10-18T01:03:19.745Z,11.60
2022-10-18T01:05:46.262Z,11.60
2022-10-18T01:08:12.937Z,11.50
2022-10-18T01:10:39.423Z,11.50
2022-10-18T01:13:06.067Z,11.50
2022-10-18T01:15:32.627Z,11.50
2022-10-18T01:17:59.190Z,11.50
2022-10-18T01:20:25.760Z,11.40
2022-10-18T01:22:52.504Z,11.40
2022-10-18T01:25:19.143Z,11.30
2022-10-18T01:27:45.595Z,11.30
2022-10-18T01:30:12.124Z,11.30
2022-10-18T01:32:38.571Z,11.30
2022-10-18T01:35:05.281Z,11.20
2022-10-18T01:37:32.362Z,11.20
2022-10-18T01:39:59.285Z,11.20
2022-10-18T01:42:25.862Z,11.20
2022-10-18T01:44:52.482Z,11.10
2022-10-18T01:47:19.193Z,11.20
2022-10-18T01:49:45.885Z,11.20
2022-10-18T01:52:12.292Z,11.30
2022-10-18T01:54:38.838Z,11.30
2022-10-18T01:57:05.341Z,11.30
2022-10-18T01:59:32.290Z,11.30
2022-10-18T02:01:59.027Z,11.30
2022-10-18T02:04:25.599Z,11.30
2022-10-18T02:06:52.431Z,11.20
2022-10-18T02:09:18.929Z,11.10
2022-10-18T02:11:45.400Z,11.10
2022-10-18T02:14:12.024Z,11.10
2022-10-18T02:16:38.649Z,11.00
2022-10-18T02:19:05.378Z,11.00
2022-10-18T02:21:31.925Z,10.90
2022-10-18T02:23:58.405Z,10.90
2022-10-18T02:26:25.134Z,10.90
2022-10-18T02:28:51.702Z,10.90
2022-10-18T02:31:18.171Z,10.90
2022-10-18T02:33:44.604Z,10.90
2022-10-18T02:36:11.253Z,11.00
2022-10-18T02:38:37.896Z,10.90
2022-10-18T02:41:04.486Z,10.90
2022-10-18T02:43:31.140Z,10.90
2022-10-18T02:45:59.446Z,10.80
2022-10-18T02:48:25.898Z,10.80
2022-10-18T02:50:52.420Z,10.80
2022-10-18T02:53:18.859Z,10.80
2022-10-18T02:55:45.325Z,10.80
2022-10-18T02:58:11.806Z,10.70
2022-10-18T03:00:38.330Z,10.70
2022-10-18T03:03:04.944Z,10.70
2022-10-18T03:05:31.413Z,10.60
2022-10-18T03:07:57.863Z,10.60
2022-10-18T03:10:24.389Z,10.60
2022-10-18T03:12:50.923Z,10.60
2022-10-18T03:15:17.577Z,10.60
2022-10-18T03:17:44.189Z,10.60
2022-10-18T03:20:10.819Z,10.50
2022-10-18T03:22:37.334Z,10.50
2022-10-18T03:25:03.830Z,10.50
2022-10-18T03:27:30.715Z,10.50
2022-10-18T03:29:57.451Z,10.50
2022-10-18T03:32:24.146Z,10.50
2022-10-18T03:34:50.624Z,10.40
2022-10-18T03:37:17.176Z,10.40
2022-10-18T03:39:43.690Z,10.30
2022-10-18T03:42:10.179Z,10.30
2022-10-18T03:44:36.644Z,10.30
2022-10-18T03:47:03.104Z,10.30
2022-10-18T03:49:29.713Z,10.30
2022-10-18T03:51:56.337Z,10.30
2022-10-18T03:54:22.836Z,10.30
2022-10-18T03:56:49.284Z,10.30
2022-10-18T03:59:15.907Z,10.30
2022-10-18T04:01:42.737Z,10.40
2022-10-18T04:04:09.462Z,10.40
2022-10-18T04:06:36.068Z,10.40
2022-10-18T04:09:04.263Z,10.40
2022-10-18T04:11:33.152Z,10.40
2022-10-18T04:13:59.747Z,10.50
2022-10-18T04:16:26.483Z,10.50
2022-10-18T04:18:53.116Z,10.60
2022-10-18T04:21:19.639Z,10.60
2022-10-18T04:23:46.340Z,10.60
2022-10-18T04:26:12.991Z,10.60
2022-10-18T04:28:39.505Z,10.70
2022-10-18T04:31:06.001Z,10.70
2022-10-18T04:33:32.729Z,10.70
2022-10-18T04:35:59.176Z,10.80
2022-10-18T04:38:25.692Z,10.80
2022-10-18T04:40:52.541Z,10.70
2022-10-18T04:43:18.999Z,10.70
2022-10-18T04:45:45.698Z,10.80
2022-10-18T04:48:12.221Z,10.70
2022-10-18T04:50:38.821Z,10.80
2022-10-18T04:53:05.331Z,10.70
2022-10-18T04:55:32.046Z,10.70
2022-10-18T04:57:58.591Z,10.70
2022-10-18T05:00:25.029Z,10.70
2022-10-18T05:02:51.825Z,10.70
2022-10-18T05:05:18.754Z,10.80
2022-10-18T05:07:46.682Z,10.80
2022-10-18T05:10:13.315Z,10.80
2022-10-18T05:12:40.002Z,10.80
2022-10-18T05:15:06.472Z,10.80
2022-10-18T05:17:32.862Z,10.80
2022-10-18T05:19:59.262Z,10.80
2022-10-18T05:22:25.685Z,10.80
2022-10-18T05:24:52.100Z,10.80
2022-10-18T05:27:18.478Z,10.80
2022-10-18T05:29:44.882Z,10.90
2022-10-18T05:32:11.255Z,10.90
2022-10-18T05:34:37.783Z,10.90
2022-10-18T05:37:04.196Z,11.00
2022-10-18T05:39:30.600Z,11.20
2022-10-18T05:41:56.989Z,11.30
2022-10-18T05:44:23.477Z,11.40
2022-10-18T05:46:49.867Z,11.50
2022-10-18T05:49:16.298Z,11.60
2022-10-18T05:51:42.723Z,11.60
2022-10-18T05:54:09.109Z,11.70
2022-10-18T05:56:35.529Z,11.80
2022-10-18T05:59:02.014Z,11.90
2022-10-18T06:01:28.415Z,12.00
2022-10-18T06:03:54.786Z,12.00
2022-10-18T06:06:21.182Z,12.00
2022-10-18T06:08:47.658Z,12.10
2022-10-18T06:11:14.065Z,12.10
2022-10-18T06:13:40.451Z,12.10
2022-10-18T06:16:06.849Z,12.20
2022-10-18T06:18:33.233Z,12.20
2022-10-18T06:20:59.664Z,12.30
2022-10-18T06:23:26.055Z,12.30
2022-10-18T06:25:52.466Z,12.50
2022-10-18T06:28:18.857Z,12.60
2022-10-18T06:30:45.294Z,12.80
2022-10-18T06:33:11.729Z,13.00
2022-10-18T06:35:38.138Z,13.10
2022-10-18T06:38:04.530Z,13.20
2022-10-18T06:40:30.939Z,13.20
2022-10-18T06:43:00.498Z,13.30
2022-10-18T06:45:37.003Z,13.30
2022-10-18T06:48:03.447Z,13.40
2022-10-18T06:50:29.848Z,13.50
2022-10-18T06:52:56.284Z,13.60
2022-10-18T06:55:22.670Z,13.60
2022-10-18T06:57:49.082Z,13.50
2022-10-18T07:00:15.496Z,13.50
2022-10-18T07:02:41.910Z,13.40
2022-10-18T07:05:08.314Z,13.50
2022-10-18T07:07:35.103Z,13.60
2022-10-18T07:10:01.777Z,13.70
2022-10-18T07:12:28.286Z,13.80
2022-10-18T07:14:54.699Z,13.90
2022-10-18T07:17:21.184Z,14.00
2022-10-18T07:19:47.601Z,14.10
2022-10-18T07:22:14.025Z,14.20
2022-10-18T07:24:40.443Z,14.20
2022-10-18T07:27:06.962Z,14.30
2022-10-18T07:29:33.496Z,14.40
2022-10-18T07:31:59.920Z,14.60
2022-10-18T07:34:26.324Z,14.80
2022-10-18T07:36:52.701Z,15.00
2022-10-18T07:39:19.103Z,15.30
2022-10-18T07:41:45.483Z,15.40
2022-10-18T07:44:11.941Z,15.50
2022-10-18T07:46:38.357Z,15.60
2022-10-18T07:49:04.795Z,15.50
2022-10-18T07:51:31.203Z,15.50
2022-10-18T07:53:57.613Z,15.50
2022-10-18T07:56:24.006Z,15.40
2022-10-18T07:58:50.399Z,15.50
2022-10-18T08:01:16.849Z,15.50
2022-10-18T08:03:43.286Z,15.50
2022-10-18T08:06:09.713Z,15.50
2022-10-18T08:08:36.122Z,15.50
2022-10-18T08:11:02.522Z,15.50
2022-10-18T08:13:28.928Z,15.60
2022-10-18T08:15:55.376Z,15.60
2022-10-18T08:18:21.750Z,15.60
2022-10-18T08:20:48.237Z,15.60
2022-10-18T08:23:14.638Z,15.70
2022-10-18T08:25:41.056Z,15.80
2022-10-18T08:28:07.761Z,15.90
2022-10-18T08:30:34.183Z,16.00
2022-10-18T08:33:00.691Z,16.10
2022-10-18T08:35:27.087Z,16.20
2022-10-18T08:37:53.484Z,16.30
2022-10-18T08:40:19.870Z,16.40
2022-10-18T08:42:46.399Z,16.60
2022-10-18T08:45:29.770Z,16.90
2022-10-18T08:47:59.197Z,17.20
2022-10-18T08:50:25.570Z,17.50
2022-10-18T08:52:52.128Z,17.70
2022-10-18T08:55:18.536Z,17.80
2022-10-18T08:57:44.977Z,17.90
2022-10-18T09:00:11.424Z,18.10
2022-10-18T09:02:37.827Z,18.30
2022-10-18T09:05:04.278Z,18.50
2022-10-18T09:07:30.804Z,18.80
2022-10-18T09:09:57.206Z,18.90
2022-10-18T09:12:26.990Z,19.10
2022-10-18T09:14:53.371Z,19.30
2022-10-18T09:17:19.779Z,19.30
2022-10-18T09:19:46.166Z,19.20
2022-10-18T09:22:12.569Z,19.10
2022-10-18T09:24:39.020Z,19.00
2022-10-18T09:27:05.443Z,19.00
2022-10-18T09:29:31.838Z,19.10
2022-10-18T09:31:58.238Z,19.30
2022-10-18T09:34:24.684Z,19.60
2022-10-18T09:36:51.065Z,19.80
2022-10-18T09:39:17.504Z,20.10
2022-10-18T09:41:43.899Z,20.30
2022-10-18T09:44:10.309Z,20.60
2022-10-18T09:46:36.695Z,20.80
2022-10-18T09:49:03.163Z,20.90
2022-10-18T09:51:29.561Z,20.90
2022-10-18T09:53:55.999Z,21.10
2022-10-18T09:56:22.397Z,21.20
2022-10-18T09:58:48.813Z,21.30
2022-10-18T10:01:15.224Z,21.50
2022-10-18T10:03:41.717Z,21.70
2022-10-18T10:06:08.102Z,21.80
2022-10-18T10:08:34.505Z,21.80
2022-10-18T10:11:00.922Z,21.70
2022-10-18T10:13:27.357Z,21.60
2022-10-18T10:15:53.789Z,21.60
2022-10-18T10:18:20.254Z,21.50
2022-10-18T10:20:46.670Z,21.40
2022-10-18T10:23:13.101Z,21.40
2022-10-18T10:25:39.547Z,21.20
2022-10-18T10:28:06.024Z,21.10
2022-10-18T10:30:32.470Z,20.80
2022-10-18T10:32:58.885Z,20.60
2022-10-18T10:35:41.460Z,20.40
2022-10-18T10:38:11.696Z,20.30
2022-10-18T10:40:38.083Z,20.20
2022-10-18T10:43:13.200Z,20.20
2022-10-18T10:45:50.896Z,20.20
2022-10-18T10:48:17.322Z,20.30
2022-10-18T10:50:43.713Z,20.30
2022-10-18T10:53:10.122Z,20.40
2022-10-18T10:55:36.498Z,20.50
2022-10-18T10:58:02.905Z,20.50
2022-10-18T11:00:29.294Z,20.60
2022-10-18T11:03:05.929Z,20.70
2022-10-18T11:05:42.095Z,20.80
2022-10-18T11:08:08.502Z,20.80
2022-10-18T11:10:34.914Z,20.90
2022-10-18T11:13:01.352Z,20.90
2022-10-18T11:15:27.751Z,20.90
2022-10-18T11:20:25.494Z,21.00
2022-10-18T11:22:51.993Z,21.10
2022-10-18T11:25:18.416Z,21.20
2022-10-18T11:27:44.821Z,21.30
2022-10-18T11:30:11.438Z,21.30
2022-10-18T11:32:37.955Z,21.40
2022-10-18T11:35:04.349Z,21.40
2022-10-18T11:37:34.478Z,21.50
2022-10-18T11:40:02.518Z,21.50
2022-10-18T11:42:28.890Z,21.60
2022-10-18T11:44:55.326Z,21.60
2022-10-18T11:47:21.705Z,21.70
2022-10-18T11:49:48.101Z,21.80
2022-10-18T11:52:14.473Z,21.80
2022-10-18T11:57:12.191Z,21.90
2022-10-18T11:59:38.594Z,21.90
2022-10-18T12:02:04.974Z,22.00
2022-10-18T12:04:31.418Z,22.10
2022-10-18T12:06:57.842Z,22.10
2022-10-18T12:09:24.269Z,22.10
2022-10-18T12:11:55.488Z,22.10
2022-10-18T12:14:22.473Z,22.10
2022-10-18T12:17:02.833Z,22.20
2022-10-18T12:19:35.282Z,22.20
2022-10-18T12:22:01.661Z,22.20
2022-10-18T12:24:28.077Z,22.30
2022-10-18T12:26:54.468Z,22.30
2022-10-18T12:29:20.932Z,22.40
2022-10-18T12:31:47.326Z,22.40
2022-10-18T12:34:13.737Z,22.60
2022-10-18T12:36:40.128Z,23.00
2022-10-18T12:39:06.534Z,23.60
2022-10-18T12:41:32.955Z,24.20
2022-10-18T12:43:59.358Z,24.70
2022-10-18T12:46:25.825Z,25.10
2022-10-18T12:48:52.353Z,25.30
2022-10-18T12:51:18.795Z,25.90
2022-10-18T12:53:45.178Z,26.40
2022-10-18T12:56:11.604Z,26.70
2022-10-18T12:58:37.986Z,26.90
2022-10-18T13:01:04.440Z,27.20
2022-10-18T13:03:30.883Z,27.50
2022-10-18T13:05:57.364Z,27.70
2022-10-18T13:08:23.762Z,27.50
2022-10-18T13:10:50.143Z,27.20
2022-10-18T13:13:38.250Z,27.50
2022-10-18T13:16:02.973Z,27.80
2022-10-18T13:18:29.408Z,28.20
2022-10-18T13:20:55.799Z,28.60
2022-10-18T13:23:22.230Z,29.20
2022-10-18T13:25:48.607Z,29.70
2022-10-18T13:28:15.028Z,29.80
2022-10-18T13:30:41.411Z,28.90
2022-10-18T13:33:07.850Z,27.70
2022-10-18T13:35:34.251Z,27.10
2022-10-18T13:38:00.651Z,27.20
2022-10-18T13:40:27.162Z,27.60
2022-10-18T13:42:53.611Z,27.60
2022-10-18T13:45:19.999Z,26.70
2022-10-18T13:47:46.441Z,26.20
2022-10-18T13:50:12.937Z,26.00
2022-10-18T13:52:39.365Z,25.80
2022-10-18T13:55:05.980Z,25.60
2022-10-18T13:57:32.554Z,25.50
2022-10-18T13:59:58.999Z,25.30
2022-10-18T14:02:49.481Z,25.20
2022-10-18T14:05:24.761Z,25.20
2022-10-18T14:07:51.979Z,25.00
2022-10-18T14:10:18.465Z,24.40
2022-10-18T14:12:44.891Z,24.00
2022-10-18T14:15:11.285Z,23.70
2022-10-18T14:20:09.031Z,23.20
2022-10-18T14:22:35.591Z,23.00
2022-10-18T14:25:02.216Z,22.70
2022-10-18T14:27:28.602Z,22.60
2022-10-18T14:29:55.008Z,22.50
2022-10-18T14:32:21.390Z,22.50
2022-10-18T14:34:47.810Z,22.40
2022-10-18T14:37:14.219Z,22.20
2022-10-18T14:39:40.672Z,21.90
2022-10-18T14:42:07.068Z,21.80
2022-10-18T14:44:33.493Z,21.80
2022-10-18T14:46:59.928Z,22.00
2022-10-18T14:49:26.339Z,22.20
2022-10-18T14:51:52.812Z,23.20
2022-10-18T14:54:19.318Z,24.00
2022-10-18T14:56:45.764Z,24.10
2022-10-18T14:59:12.197Z,23.90
2022-10-18T15:01:38.601Z,23.60
2022-10-18T15:04:06.046Z,23.30
2022-10-18T15:06:32.483Z,23.00
2022-10-18T15:08:58.882Z,22.70
2022-10-18T15:11:25.292Z,22.50
2022-10-18T15:13:51.718Z,22.30
2022-10-18T15:16:18.148Z,22.10
2022-10-18T15:18:44.535Z,22.00
2022-10-18T15:21:10.930Z,21.80
2022-10-18T15:23:37.327Z,21.60
2022-10-18T15:26:03.821Z,21.50
2022-10-18T15:28:30.286Z,21.40
2022-10-18T15:30:57.035Z,21.40
2022-10-18T15:33:23.493Z,21.40
2022-10-18T15:35:49.989Z,21.30
2022-10-18T15:38:16.362Z,21.30
2022-10-18T15:40:42.752Z,21.20
2022-10-18T15:43:09.134Z,21.20
2022-10-18T15:45:35.587Z,21.20
2022-10-18T15:48:01.990Z,21.10
2022-10-18T15:50:28.396Z,21.10
2022-10-18T15:52:54.783Z,21.10
2022-10-18T15:55:21.193Z,21.00
2022-10-18T15:57:47.660Z,21.00
2022-10-18T16:00:14.036Z,21.00
2022-10-18T16:02:40.443Z,20.90
2022-10-18T16:05:06.838Z,20.80
2022-10-18T16:07:33.634Z,20.80
2022-10-18T16:10:00.312Z,20.80
2022-10-18T16:12:26.762Z,20.70
2022-10-18T16:14:53.172Z,20.60
2022-10-18T16:17:19.594Z,20.50
2022-10-18T16:19:46.011Z,20.50
2022-10-18T16:24:43.701Z,20.30
2022-10-18T16:27:10.109Z,20.20
2022-10-18T16:29:36.505Z,20.10
2022-10-18T16:32:02.913Z,20.00
2022-10-18T16:34:29.289Z,19.90
2022-10-18T16:36:55.690Z,19.80
2022-10-18T16:39:22.098Z,19.70
2022-10-18T16:41:48.524Z,19.60
2022-10-18T16:44:14.965Z,19.50
2022-10-18T16:46:41.408Z,19.40
2022-10-18T16:49:07.827Z,19.20
2022-10-18T16:51:34.300Z,19.10
2022-10-18T16:54:00.691Z,19.00
2022-10-18T16:56:27.118Z,18.90
2022-10-18T16:58:53.630Z,18.90
2022-10-18T17:01:20.109Z,18.80
2022-10-18T17:03:46.666Z,18.70
2022-10-18T17:06:13.067Z,18.70
2022-10-18T17:08:39.612Z,18.60
2022-10-18T17:11:06.199Z,18.40
2022-10-18T17:13:32.862Z,18.30
2022-10-18T17:15:59.322Z,18.20
2022-10-18T17:18:25.735Z,18.10
2022-10-18T17:20:52.160Z,18.00
2022-10-18T17:23:18.669Z,17.90
2022-10-18T17:25:57.558Z,17.80
2022-10-18T17:28:31.473Z,17.70
2022-10-18T17:30:57.940Z,17.60
2022-10-18T17:33:24.359Z,17.60
2022-10-18T17:35:50.814Z,17.50
2022-10-18T17:38:17.240Z,17.40
2022-10-18T17:40:43.643Z,17.40
2022-10-18T17:43:10.070Z,17.30
2022-10-18T17:45:36.456Z,17.20
2022-10-18T17:48:02.884Z,17.20
2022-10-18T17:50:29.307Z,17.10
2022-10-18T17:52:55.836Z,17.10
2022-10-18T17:55:22.230Z,17.10
2022-10-18T17:57:48.676Z,17.00
2022-10-18T18:00:15.057Z,17.00
2022-10-18T18:02:42.157Z,17.00
2022-10-18T18:05:08.911Z,17.10
2022-10-18T18:07:35.290Z,17.10
2022-10-18T18:10:01.698Z,17.10
2022-10-18T18:12:28.103Z,17.10
2022-10-18T18:14:54.507Z,17.10
2022-10-18T18:17:28.717Z,17.10
2022-10-18T18:20:00.985Z,17.10
2022-10-18T18:22:27.477Z,17.10
2022-10-18T18:24:53.919Z,17.10
2022-10-18T18:27:20.323Z,17.10
2022-10-18T18:29:46.758Z,17.10
2022-10-18T18:32:13.209Z,17.10
2022-10-18T18:34:39.619Z,17.10
2022-10-18T18:37:06.022Z,17.10
2022-10-18T18:39:32.521Z,17.00
2022-10-18T18:41:58.933Z,17.00
2022-10-18T18:44:25.350Z,16.90
2022-10-18T18:46:51.734Z,16.90
2022-10-18T18:49:18.196Z,16.90
2022-10-18T18:51:44.633Z,16.90
2022-10-18T18:54:11.118Z,16.90
2022-10-18T18:56:37.548Z,16.80
2022-10-18T18:59:03.979Z,16.80
2022-10-18T19:01:30.557Z,16.70
2022-10-18T19:03:57.134Z,16.70
2022-10-18T19:06:23.559Z,16.70
2022-10-18T19:08:49.991Z,16.70
2022-10-18T19:11:16.572Z,16.70
2022-10-18T19:13:42.954Z,16.70
2022-10-18T19:16:09.370Z,16.70
2022-10-18T19:18:35.849Z,16.60
2022-10-18T19:21:02.279Z,16.60
2022-10-18T19:23:28.683Z,16.50
2022-10-18T19:25:55.328Z,16.50
2022-10-18T19:28:22.028Z,16.40
2022-10-18T19:30:50.068Z,16.30
2022-10-18T19:33:16.685Z,16.20
2022-10-18T19:35:43.103Z,16.10
2022-10-18T19:38:09.537Z,16.10
2022-10-18T19:40:35.956Z,16.00
2022-10-18T19:43:02.377Z,16.00
2022-10-18T19:45:28.784Z,15.90
2022-10-18T19:47:55.228Z,15.80
2022-10-18T19:50:21.756Z,15.80
2022-10-18T19:52:48.193Z,15.70
2022-10-18T19:55:14.595Z,15.60
2022-10-18T19:57:41.034Z,15.50
2022-10-18T20:00:09.786Z,15.40
2022-10-18T20:02:37.349Z,15.30
2022-10-18T20:05:03.725Z,15.30
2022-10-18T20:07:30.169Z,15.30
2022-10-18T20:09:56.597Z,15.20
2022-10-18T20:12:22.993Z,15.20
2022-10-18T20:14:49.392Z,15.10
2022-10-18T20:17:16.061Z,15.00
2022-10-18T20:19:42.454Z,15.00
2022-10-18T20:22:08.876Z,14.90
2022-10-18T20:24:35.348Z,14.90
2022-10-18T20:27:01.833Z,14.80
2022-10-18T20:29:28.314Z,14.80
2022-10-18T20:31:54.727Z,14.80
2022-10-18T20:34:21.110Z,14.80
2022-10-18T20:36:48.166Z,14.80
2022-10-18T20:39:14.649Z,14.90
2022-10-18T20:41:41.228Z,14.90
2022-10-18T20:44:07.931Z,14.90
2022-10-18T20:46:34.353Z,14.80
2022-10-18T20:49:00.840Z,14.90
2022-10-18T20:51:27.245Z,14.90
2022-10-18T20:53:53.779Z,14.80
2022-10-18T20:56:20.415Z,14.80
2022-10-18T20:58:46.949Z,14.80
2022-10-18T21:01:13.431Z,14.80
2022-10-18T21:03:39.864Z,14.70
2022-10-18T21:06:06.257Z,14.70
2022-10-18T21:08:32.675Z,14.60
2022-10-18T21:10:59.271Z,14.60
2022-10-18T21:13:25.989Z,14.50
2022-10-18T21:15:52.360Z,14.50
2022-10-18T21:18:18.767Z,14.50
2022-10-18T21:20:45.209Z,14.50
2022-10-18T21:23:11.603Z,14.50
2022-10-18T21:25:37.977Z,14.50
2022-10-18T21:28:04.377Z,14.50
2022-10-18T21:30:30.844Z,14.40
2022-10-18T21:32:57.300Z,14.40
2022-10-18T21:35:23.853Z,14.30
2022-10-18T21:37:50.351Z,14.30
2022-10-18T21:40:16.727Z,14.20
2022-10-18T21:42:43.118Z,14.20
2022-10-18T21:45:09.599Z,14.30
2022-10-18T21:47:36.008Z,14.20
2022-10-18T21:50:02.412Z,14.30
2022-10-18T21:52:28.919Z,14.20
2022-10-18T21:54:55.348Z,14.20
2022-10-18T21:57:21.754Z,14.20
2022-10-18T21:59:48.175Z,14.20
2022-10-18T22:02:14.570Z,14.20
2022-10-18T22:04:40.956Z,14.30
2022-10-18T22:07:07.328Z,14.30
2022-10-18T22:09:33.718Z,14.40
2022-10-18T22:12:00.099Z,14.40
2022-10-18T22:14:26.496Z,14.40
2022-10-18T22:16:52.907Z,14.50
2022-10-18T22:19:19.316Z,14.50
2022-10-18T22:21:45.729Z,14.60
2022-10-18T22:24:12.167Z,14.60
2022-10-18T22:26:38.545Z,14.70
2022-10-18T22:29:04.989Z,14.70
2022-10-18T22:31:31.442Z,14.70
2022-10-18T22:33:57.829Z,14.70
2022-10-18T22:36:24.234Z,14.60
2022-10-18T22:38:50.614Z,14.60
2022-10-18T22:41:17.005Z,14.60
2022-10-18T22:43:43.389Z,14.50
2022-10-18T22:46:09.778Z,14.50
2022-10-18T22:48:36.146Z,14.40
2022-10-18T22:51:02.545Z,14.40
2022-10-18T22:53:28.951Z,14.30
2022-10-18T22:55:55.360Z,14.40
2022-10-18T22:58:21.755Z,14.30
2022-10-18T23:00:48.153Z,14.40
2022-10-18T23:03:14.534Z,14.30
2022-10-18T23:05:40.942Z,14.30
2022-10-18T23:08:07.316Z,14.30
2022-10-18T23:10:33.769Z,14.30
2022-10-18T23:13:00.158Z,14.20
2022-10-18T23:15:26.555Z,14.20
2022-10-18T23:17:52.950Z,14.20
2022-10-18T23:20:19.348Z,14.20
2022-10-18T23:22:45.736Z,14.30
2022-10-18T23:25:12.101Z,14.30
2022-10-18T23:27:38.510Z,14.40
2022-10-18T23:30:04.929Z,14.50
2022-10-18T23:32:31.586Z,14.50
2022-10-18T23:34:58.184Z,14.60
2022-10-18T23:37:24.584Z,14.70
2022-10-18T23:39:50.962Z,14.80
2022-10-18T23:42:17.362Z,14.80
2022-10-18T23:44:43.734Z,14.90
2022-10-18T23:47:10.126Z,15.00
2022-10-18T23:49:36.508Z,15.10
2022-10-18T23:52:02.942Z,15.10
2022-10-18T23:54:29.321Z,15.20
2022-10-18T23:56:55.703Z,15.20
2022-10-18T23:59:22.117Z,15.30
